Time;durP1;ratioP1;P1;durP2;ratioP2;P2;SDS_P1;SDS_P2;PMS_P1;PMS_P2;Temp;Humidity;BMP_temperature;BMP_pressure;BME280_temperature;BME280_humidity;BME280_pressure;Samples;Min_cycle;Max_cycle;Signal;HPM_P1;HPM_P2
2021/08/16 00:01:14;;;;;;;6.25;5.15;;;17.00;99.90;;;;;;6151913;23;20049;-81
2021/08/16 00:03:42;;;;;;;6.82;5.30;;;17.10;99.90;;;;;;6125470;23;20658;-81
2021/08/16 00:06:10;;;;;;;8.88;5.85;;;17.10;99.90;;;;;;6135908;23;20014;-81
2021/08/16 00:08:37;;;;;;;7.32;5.25;;;17.10;99.90;;;;;;6125554;23;20037;-81
2021/08/16 00:11:05;;;;;;;14.90;6.30;;;17.10;99.90;;;;;;6160650;23;20022;-81
2021/08/16 00:13:33;;;;;;;10.32;5.65;;;17.20;99.90;;;;;;6101230;23;20117;-82
2021/08/16 00:16:01;;;;;;;11.07;8.05;;;17.10;99.90;;;;;;6106998;23;20346;-82
2021/08/16 00:18:30;;;;;;;6.22;5.50;;;17.20;99.90;;;;;;6135836;23;20033;-81
2021/08/16 00:20:58;;;;;;;7.97;5.95;;;17.30;99.90;;;;;;6126320;23;20033;-81
2021/08/16 00:23:26;;;;;;;12.80;7.10;;;17.30;99.90;;;;;;6124766;23;20776;-81
2021/08/16 00:25:59;;;;;;;12.32;8.60;;;17.40;99.90;;;;;;6137307;23;20028;-82
2021/08/16 00:28:26;;;;;;;8.05;5.35;;;17.50;99.90;;;;;;6128382;23;20033;-81
2021/08/16 00:30:54;;;;;;;5.90;5.03;;;17.60;99.90;;;;;;6135938;23;20021;-82
2021/08/16 00:33:22;;;;;;;16.27;5.63;;;17.60;99.90;;;;;;6075712;23;20025;-81
2021/08/16 00:35:50;;;;;;;12.80;7.57;;;17.50;99.90;;;;;;6155852;23;20041;-81
2021/08/16 00:38:18;;;;;;;10.38;5.90;;;17.40;99.90;;;;;;6101267;23;20021;-82
2021/08/16 00:40:54;;;;;;;15.55;8.25;;;17.40;99.90;;;;;;6152625;23;20032;-82
2021/08/16 00:43:24;;;;;;;11.10;6.95;;;17.40;99.90;;;;;;6100057;23;20025;-82
2021/08/16 00:45:52;;;;;;;11.60;6.22;;;17.50;99.90;;;;;;6135987;23;20036;-83
2021/08/16 00:48:24;;;;;;;10.57;6.88;;;17.60;99.90;;;;;;6100424;23;20368;-82
2021/08/16 00:50:56;;;;;;;13.38;8.20;;;17.80;99.90;;;;;;6077034;23;20033;-82
2021/08/16 00:53:25;;;;;;;9.32;7.55;;;18.00;99.90;;;;;;6076403;23;20022;-82
2021/08/16 00:55:53;;;;;;;14.18;9.25;;;18.10;99.90;;;;;;6131608;23;20348;-82
2021/08/16 00:58:21;;;;;;;18.83;7.70;;;18.20;99.90;;;;;;6135336;23;20010;-82
2021/08/16 01:00:54;;;;;;;10.77;6.85;;;18.10;99.90;;;;;;6100312;23;20029;-82
2021/08/16 01:03:38;;;;;;;17.02;7.75;;;18.00;99.90;;;;;;6135731;23;20477;-82
2021/08/16 01:06:07;;;;;;;10.73;5.93;;;17.90;99.90;;;;;;6134731;23;20017;-82
2021/08/16 01:08:36;;;;;;;10.70;6.18;;;17.80;99.90;;;;;;6124532;23;20472;-81
2021/08/16 01:11:04;;;;;;;8.90;7.65;;;17.60;99.90;;;;;;6123736;23;20017;-82
2021/08/16 01:13:32;;;;;;;10.57;6.68;;;17.60;99.90;;;;;;6100172;23;20345;-81
2021/08/16 01:16:03;;;;;;;7.60;6.07;;;17.50;99.90;;;;;;6123702;23;20033;-81
2021/08/16 01:18:32;;;;;;;;;;;17.40;99.90;;;;;;6101321;23;20017;-81
2021/08/16 01:21:10;;;;;;;15.70;7.60;;;17.30;99.90;;;;;;6099165;23;19924;-82
2021/08/16 01:23:38;;;;;;;8.55;6.25;;;17.30;99.90;;;;;;6100332;23;20036;-82
2021/08/16 01:26:08;;;;;;;10.25;6.25;;;17.30;99.90;;;;;;6101242;23;20022;-82
2021/08/16 01:28:36;;;;;;;9.80;5.60;;;17.20;99.90;;;;;;6086386;23;20033;-81
2021/08/16 01:31:07;;;;;;;11.20;6.25;;;17.20;99.90;;;;;;6123512;23;20029;-82
2021/08/16 01:33:37;;;;;;;9.00;5.90;;;17.20;99.90;;;;;;6100583;23;20337;-82
2021/08/16 01:36:05;;;;;;;19.88;6.55;;;17.00;99.90;;;;;;6105815;23;20456;-81
2021/08/16 01:38:36;;;;;;;17.30;6.32;;;17.10;99.90;;;;;;6124653;23;20311;-81
2021/08/16 01:41:05;;;;;;;20.92;7.65;;;17.10;99.90;;;;;;6100100;23;20453;-82
2021/08/16 01:43:33;;;;;;;10.40;6.45;;;17.20;99.90;;;;;;6099217;23;20025;-81
2021/08/16 01:46:04;;;;;;;7.72;6.65;;;17.30;99.90;;;;;;6125359;23;20479;-82
2021/08/16 01:48:33;;;;;;;6.72;5.25;;;17.40;99.90;;;;;;6099884;23;20029;-83
2021/08/16 01:51:04;;;;;;;12.65;6.18;;;17.50;99.90;;;;;;6084835;23;20028;-82
2021/08/16 01:53:48;;;;;;;8.23;5.70;;;17.60;99.90;;;;;;6127074;23;20022;-81
2021/08/16 01:56:28;;;;;;;10.43;6.20;;;17.70;99.90;;;;;;6101397;23;20534;-82
2021/08/16 01:58:55;;;;;;;9.50;7.85;;;17.70;99.90;;;;;;6100499;23;20025;-81
2021/08/16 02:01:25;;;;;;;10.43;6.70;;;17.70;99.90;;;;;;6076113;23;20445;-82
2021/08/16 02:03:54;;;;;;;12.60;6.83;;;17.70;99.90;;;;;;6100405;23;20450;-82
2021/08/16 02:06:23;;;;;;;14.90;7.85;;;17.70;99.90;;;;;;6134774;23;20029;-82
2021/08/16 02:08:55;;;;;;;10.48;7.28;;;17.80;99.90;;;;;;6087529;23;20026;-83
2021/08/16 02:11:24;;;;;;;9.90;6.40;;;17.90;99.90;;;;;;6122410;23;20025;-82
2021/08/16 02:13:55;;;;;;;13.32;6.68;;;18.00;99.90;;;;;;6101158;23;20036;-82
2021/08/16 02:16:27;;;;;;;7.93;5.60;;;18.00;99.90;;;;;;6070823;23;20037;-81
2021/08/16 02:18:55;;;;;;;14.32;5.75;;;18.00;99.90;;;;;;6064830;23;20022;-81
2021/08/16 02:21:29;;;;;;;12.70;6.78;;;18.00;99.90;;;;;;6070800;23;20038;-81
2021/08/16 02:24:07;;;;;;;5.28;4.53;;;18.00;99.90;;;;;;6048387;23;20037;-82
2021/08/16 02:26:40;;;;;;;8.70;5.75;;;18.00;99.90;;;;;;6071742;23;20025;-82
2021/08/16 02:29:09;;;;;;;10.88;6.97;;;18.00;99.90;;;;;;6056158;23;20029;-82
2021/08/16 02:31:39;;;;;;;10.73;4.22;;;18.00;99.90;;;;;;6041754;23;20080;-82
2021/08/16 02:34:23;;;;;;;5.80;4.95;;;18.00;99.90;;;;;;6064588;23;20112;-81
2021/08/16 02:36:53;;;;;;;11.65;5.28;;;18.00;99.90;;;;;;6020963;23;20454;-82
2021/08/16 02:39:27;;;;;;;15.27;7.18;;;18.00;99.90;;;;;;6017864;23;20328;-82
2021/08/16 02:42:12;;;;;;;6.50;5.82;;;18.00;99.90;;;;;;6055494;23;20029;-82
2021/08/16 02:44:54;;;;;;;8.98;6.05;;;17.90;99.90;;;;;;6065537;23;20022;-81
2021/08/16 02:47:39;;;;;;;7.75;4.68;;;17.80;99.90;;;;;;6096018;23;20037;-82
2021/08/16 02:50:12;;;;;;;7.82;5.72;;;17.70;99.90;;;;;;6055941;23;20169;-82
2021/08/16 02:52:45;;;;;;;5.85;4.47;;;17.70;99.90;;;;;;6093355;23;20075;-82
2021/08/16 02:55:51;;;;;;;15.20;7.75;;;17.70;99.90;;;;;;6104156;23;20029;-82
2021/08/16 02:58:24;;;;;;;9.73;6.43;;;17.60;99.90;;;;;;6104423;23;20018;-82
2021/08/16 03:01:05;;;;;;;5.13;4.47;;;17.50;99.90;;;;;;6074495;23;20030;-82
2021/08/16 03:03:46;;;;;;;12.60;4.93;;;17.50;99.90;;;;;;6072737;23;20025;-81
2021/08/16 03:06:28;;;;;;;5.32;4.80;;;17.50;99.90;;;;;;6072260;23;20354;-81
2021/08/16 03:09:13;;;;;;;8.23;5.25;;;17.50;99.90;;;;;;6116051;23;20083;-81
2021/08/16 03:11:49;;;;;;;6.70;4.75;;;17.50;99.90;;;;;;6082749;23;20018;-81
2021/08/16 03:14:23;;;;;;;11.18;5.85;;;17.40;99.90;;;;;;6097373;23;20022;-81
2021/08/16 03:16:52;;;;;;;9.80;5.85;;;17.30;99.90;;;;;;6096180;23;20033;-81
2021/08/16 03:19:21;;;;;;;6.97;4.63;;;17.20;99.90;;;;;;6129102;23;20034;-81
2021/08/16 03:21:50;;;;;;;8.38;4.60;;;17.20;99.90;;;;;;6095934;23;20021;-82
2021/08/16 03:24:24;;;;;;;9.60;5.10;;;17.20;99.90;;;;;;6086933;23;20474;-81
2021/08/16 03:26:53;;;;;;;7.03;5.75;;;17.10;99.90;;;;;;6042417;23;20465;-81
2021/08/16 03:29:27;;;;;;;13.63;6.45;;;17.00;99.90;;;;;;6007402;23;20022;-81
2021/08/16 03:32:05;;;;;;;7.63;3.97;;;17.00;99.90;;;;;;6040523;23;20030;-81
2021/08/16 03:34:37;;;;;;;13.77;6.47;;;17.10;99.90;;;;;;6042272;23;20022;-81
2021/08/16 03:37:10;;;;;;;5.72;4.20;;;17.20;99.90;;;;;;6041825;23;20026;-81
2021/08/16 03:40:06;;;;;;;10.18;4.63;;;17.20;99.90;;;;;;6044711;23;20031;-81
2021/08/16 03:42:34;;;;;;;6.15;5.20;;;17.20;99.90;;;;;;6013281;23;20022;-81
2021/08/16 03:45:08;;;;;;;4.82;4.30;;;17.10;99.90;;;;;;6038899;23;20337;-81
2021/08/16 03:47:43;;;;;;;7.95;5.07;;;17.10;99.90;;;;;;6013164;23;20727;-81
2021/08/16 03:50:12;;;;;;;6.88;5.63;;;17.00;99.90;;;;;;6036589;23;20030;-81
2021/08/16 03:52:41;;;;;;;6.25;4.47;;;16.90;99.90;;;;;;6040340;23;20814;-81
2021/08/16 03:55:09;;;;;;;11.77;6.32;;;16.90;99.90;;;;;;6040972;23;20382;-81
2021/08/16 03:57:42;;;;;;;13.30;8.18;;;16.90;99.90;;;;;;6065851;23;20022;-81
2021/08/16 04:00:12;;;;;;;8.18;6.07;;;16.80;99.90;;;;;;6070371;23;20022;-81
2021/08/16 04:02:43;;;;;;;34.53;9.80;;;16.80;99.90;;;;;;6090091;23;20030;-81
2021/08/16 04:05:19;;;;;;;10.65;6.50;;;16.80;99.90;;;;;;6077426;23;20028;-78
2021/08/16 04:07:46;;;;;;;8.07;5.82;;;16.70;99.90;;;;;;6131794;23;20025;-78
2021/08/16 04:10:17;;;;;;;16.95;8.10;;;16.70;99.90;;;;;;6160566;23;20029;-78
2021/08/16 04:12:45;;;;;;;10.43;5.45;;;16.70;99.90;;;;;;6123923;23;20036;-78
2021/08/16 04:15:16;;;;;;;8.25;5.30;;;16.80;99.90;;;;;;6125109;23;20025;-79
2021/08/16 04:17:44;;;;;;;11.77;6.70;;;16.80;99.90;;;;;;6100741;23;20762;-78
2021/08/16 04:20:13;;;;;;;8.18;5.47;;;16.80;99.90;;;;;;6156169;23;20365;-78
2021/08/16 04:22:42;;;;;;;4.75;4.35;;;16.80;99.90;;;;;;6161241;23;20017;-78
2021/08/16 04:25:16;;;;;;;18.52;6.07;;;16.80;99.90;;;;;;6126773;23;20083;-78
2021/08/16 04:27:44;;;;;;;7.03;5.07;;;16.90;99.90;;;;;;6131711;23;20465;-78
2021/08/16 04:30:13;;;;;;;8.00;6.68;;;17.10;99.90;;;;;;6159647;23;20028;-78
2021/08/16 04:32:42;;;;;;;8.57;5.97;;;17.20;99.90;;;;;;6124109;23;20030;-78
2021/08/16 04:35:14;;;;;;;7.72;5.85;;;17.30;99.90;;;;;;6149646;23;20391;-79
2021/08/16 04:37:42;;;;;;;6.20;5.60;;;17.10;99.90;;;;;;6159540;23;20017;-79
2021/08/16 04:40:11;;;;;;;6.90;5.20;;;17.10;99.90;;;;;;6124207;23;20056;-78
2021/08/16 04:42:39;;;;;;;6.97;5.05;;;17.00;99.90;;;;;;6161106;23;20022;-79
2021/08/16 04:45:09;;;;;;;12.13;6.95;;;17.00;99.90;;;;;;6152348;23;20056;-79
2021/08/16 04:47:37;;;;;;;7.10;5.13;;;17.00;99.90;;;;;;6158319;23;20473;-78
2021/08/16 04:50:05;;;;;;;7.30;5.60;;;17.00;99.90;;;;;;6158365;23;20017;-78
2021/08/16 04:52:33;;;;;;;14.13;7.25;;;16.90;99.90;;;;;;6153780;23;20036;-79
2021/08/16 04:55:01;;;;;;;10.50;6.03;;;16.90;99.90;;;;;;6161146;23;20013;-79
2021/08/16 04:57:36;;;;;;;11.40;5.20;;;16.90;99.90;;;;;;6149962;23;20417;-79
2021/08/16 05:00:05;;;;;;;7.43;4.78;;;16.90;99.90;;;;;;6156272;23;20737;-79
2021/08/16 05:02:34;;;;;;;11.95;7.45;;;16.90;99.90;;;;;;6159927;23;20022;-79
2021/08/16 05:05:14;;;;;;;6.78;5.03;;;16.90;99.90;;;;;;6151473;23;20448;-79
2021/08/16 05:07:53;;;;;;;9.70;5.35;;;16.90;99.90;;;;;;6157298;23;20032;-78
2021/08/16 05:10:24;;;;;;;13.63;5.25;;;17.00;99.90;;;;;;6159758;23;20024;-79
2021/08/16 05:12:53;;;;;;;11.70;7.47;;;17.00;99.90;;;;;;6152523;23;20032;-79
2021/08/16 05:15:21;;;;;;;6.65;5.68;;;17.00;99.90;;;;;;6124403;23;20021;-79
2021/08/16 05:17:49;;;;;;;7.40;5.10;;;17.00;99.90;;;;;;6160980;23;20036;-78
2021/08/16 05:20:21;;;;;;;10.68;6.03;;;17.00;99.90;;;;;;6152802;23;20025;-78
2021/08/16 05:22:52;;;;;;;6.35;5.28;;;17.00;99.90;;;;;;6123925;23;20032;-78
2021/08/16 05:25:20;;;;;;;10.73;5.10;;;17.10;99.90;;;;;;6125647;23;20026;-78
2021/08/16 05:27:49;;;;;;;13.30;6.40;;;17.10;99.90;;;;;;6099530;23;20025;-79
2021/08/16 05:30:17;;;;;;;11.32;4.63;;;17.20;99.90;;;;;;6125019;23;20021;-79
2021/08/16 05:32:45;;;;;;;7.00;4.53;;;17.30;99.90;;;;;;6099216;23;20022;-78
2021/08/16 05:35:13;;;;;;;6.43;4.43;;;17.30;99.90;;;;;;6134011;23;20017;-78
2021/08/16 05:37:41;;;;;;;12.68;6.50;;;17.40;99.90;;;;;;6110619;23;20631;-79
2021/08/16 05:40:10;;;;;;;12.00;7.20;;;17.40;99.90;;;;;;6129873;23;20022;-79
2021/08/16 05:42:38;;;;;;;8.40;5.28;;;17.40;99.90;;;;;;6124053;23;20014;-79
2021/08/16 05:45:07;;;;;;;8.75;4.13;;;17.40;99.90;;;;;;6125780;23;20029;-78
2021/08/16 05:47:35;;;;;;;5.80;5.03;;;17.50;99.90;;;;;;6156207;23;20022;-79
2021/08/16 05:50:05;;;;;;;7.90;5.30;;;17.50;99.90;;;;;;6132667;23;20029;-78
2021/08/16 05:52:34;;;;;;;9.90;4.70;;;17.50;99.90;;;;;;6129826;23;20022;-78
2021/08/16 05:55:05;;;;;;;8.85;6.22;;;17.50;99.90;;;;;;6137039;23;20014;-79
2021/08/16 05:57:33;;;;;;;9.80;4.95;;;17.70;99.90;;;;;;6126051;23;20024;-81
2021/08/16 06:00:01;;;;;;;13.63;6.93;;;17.90;99.90;;;;;;6156711;23;20017;-78
2021/08/16 06:02:32;;;;;;;7.32;5.20;;;18.20;99.90;;;;;;6163199;23;20333;-78
2021/08/16 06:05:01;;;;;;;8.80;4.88;;;18.30;99.90;;;;;;6128855;23;20029;-78
2021/08/16 06:07:29;;;;;;;10.48;4.60;;;18.40;99.90;;;;;;6159724;23;20024;-76
2021/08/16 06:10:04;;;;;;;5.30;2.97;;;18.50;99.90;;;;;;6162437;23;20020;-77
2021/08/16 06:12:32;;;;;;;9.80;3.42;;;18.70;99.90;;;;;;6125508;23;20075;-76
2021/08/16 06:15:00;;;;;;;5.13;3.65;;;18.90;99.90;;;;;;6126200;23;20017;-76
2021/08/16 06:17:29;;;;;;;3.72;3.10;;;18.90;99.90;;;;;;6151586;23;20025;-76
2021/08/16 06:19:57;;;;;;;4.43;3.80;;;18.90;99.90;;;;;;6158251;23;20021;-76
2021/08/16 06:22:25;;;;;;;5.03;2.65;;;18.90;99.90;;;;;;6161857;23;20014;-76
2021/08/16 06:24:53;;;;;;;6.00;2.83;;;18.80;99.90;;;;;;6128902;23;20033;-76
2021/08/16 06:27:20;;;;;;;5.60;3.50;;;18.80;99.90;;;;;;6134315;23;20020;-76
2021/08/16 06:29:48;;;;;;;5.03;2.58;;;18.80;99.90;;;;;;6136632;23;20453;-77
2021/08/16 06:32:16;;;;;;;9.20;4.15;;;18.70;99.90;;;;;;6155341;23;20021;-77
2021/08/16 06:34:44;;;;;;;4.20;2.75;;;18.70;99.90;;;;;;6162740;23;20044;-76
2021/08/16 06:37:12;;;;;;;3.40;2.70;;;18.70;99.90;;;;;;6151929;23;20029;-77
2021/08/16 06:39:40;;;;;;;8.70;3.90;;;18.60;99.90;;;;;;6152154;23;20021;-76
2021/08/16 06:42:08;;;;;;;8.25;3.75;;;18.60;99.90;;;;;;6149813;23;20025;-75
2021/08/16 06:44:36;;;;;;;8.70;3.25;;;18.60;99.90;;;;;;6125501;23;20022;-76
2021/08/16 06:47:05;;;;;;;4.38;2.55;;;18.60;99.90;;;;;;6124902;23;20021;-76
2021/08/16 06:49:33;;;;;;;9.15;2.55;;;18.60;99.90;;;;;;6077311;23;20014;-77
2021/08/16 06:52:01;;;;;;;4.85;2.95;;;18.50;99.90;;;;;;6157355;23;20021;-76
2021/08/16 06:54:31;;;;;;;7.45;2.90;;;18.50;99.90;;;;;;6152644;23;20025;-77
2021/08/16 06:57:01;;;;;;;7.90;4.20;;;18.50;99.90;;;;;;6153880;23;20334;-77
2021/08/16 06:59:28;;;;;;;6.90;3.65;;;18.50;99.90;;;;;;6133517;23;20021;-77
2021/08/16 07:01:56;;;;;;;6.40;5.47;;;18.50;99.90;;;;;;6161096;23;20017;-76
2021/08/16 07:04:24;;;;;;;5.05;3.58;;;18.50;99.90;;;;;;6155709;23;20462;-76
2021/08/16 07:06:52;;;;;;;3.70;3.13;;;18.50;99.90;;;;;;6162276;23;20013;-76
2021/08/16 07:09:20;;;;;;;6.53;3.28;;;18.50;99.90;;;;;;6151777;23;20033;-77
2021/08/16 07:11:48;;;;;;;4.32;3.40;;;18.60;99.90;;;;;;6124309;23;20504;-77
2021/08/16 07:14:16;;;;;;;7.38;3.97;;;18.60;99.90;;;;;;6161771;23;20017;-77
2021/08/16 07:16:44;;;;;;;6.70;3.35;;;18.60;99.90;;;;;;6124353;23;20041;-77
2021/08/16 07:19:12;;;;;;;4.47;3.97;;;18.70;99.90;;;;;;6160471;23;20009;-77
2021/08/16 07:21:39;;;;;;;4.95;3.13;;;18.80;99.90;;;;;;6161739;23;20017;-77
2021/08/16 07:24:07;;;;;;;7.78;3.75;;;19.00;99.90;;;;;;6156922;23;20084;-77
2021/08/16 07:26:35;;;;;;;3.22;2.47;;;19.10;99.90;;;;;;6125334;23;20029;-77
2021/08/16 07:29:03;;;;;;;4.75;2.70;;;19.20;99.90;;;;;;6152478;23;20025;-77
2021/08/16 07:31:30;;;;;;;2.85;2.35;;;19.30;99.90;;;;;;6158967;23;20033;-76
2021/08/16 07:33:59;;;;;;;3.75;2.63;;;19.40;99.90;;;;;;6161851;23;20327;-76
2021/08/16 07:36:27;;;;;;;6.55;3.03;;;19.50;99.90;;;;;;6155484;23;20053;-77
2021/08/16 07:38:54;;;;;;;7.97;4.65;;;19.70;99.90;;;;;;6124861;23;20038;-78
2021/08/16 07:41:22;;;;;;;4.95;4.03;;;19.90;99.90;;;;;;6151654;23;20461;-78
2021/08/16 07:43:50;;;;;;;4.82;2.90;;;20.10;99.90;;;;;;6131558;23;20365;-78
2021/08/16 07:46:18;;;;;;;4.35;3.95;;;20.40;99.90;;;;;;6161349;23;20017;-78
2021/08/16 07:48:46;;;;;;;6.85;3.00;;;20.50;99.90;;;;;;6154010;23;20022;-78
2021/08/16 07:51:14;;;;;;;6.32;3.25;;;20.60;99.90;;;;;;6152752;23;20025;-78
2021/08/16 07:53:45;;;;;;;3.85;2.85;;;20.70;99.90;;;;;;6148588;23;20017;-78
2021/08/16 07:56:13;;;;;;;4.68;3.22;;;20.80;99.90;;;;;;6148682;23;20021;-80
2021/08/16 07:58:42;;;;;;;4.65;2.55;;;21.00;99.90;;;;;;6160741;23;20017;-77
2021/08/16 08:01:10;;;;;;;6.90;3.58;;;21.20;99.90;;;;;;6126185;23;20021;-77
2021/08/16 08:03:38;;;;;;;3.35;3.05;;;21.20;99.90;;;;;;6132307;23;20022;-77
2021/08/16 08:06:06;;;;;;;4.68;2.88;;;21.10;99.90;;;;;;6124632;23;20028;-77
2021/08/16 08:08:34;;;;;;;6.15;3.53;;;21.20;99.90;;;;;;6154526;23;20040;-77
2021/08/16 08:11:03;;;;;;;6.30;4.72;;;21.30;99.90;;;;;;6133849;23;20020;-77
2021/08/16 08:13:31;;;;;;;4.80;3.83;;;21.50;99.90;;;;;;6160924;23;20009;-77
2021/08/16 08:16:00;;;;;;;6.18;3.70;;;21.60;99.90;;;;;;6156558;23;20029;-78
2021/08/16 08:18:28;;;;;;;37.17;4.35;;;21.60;99.90;;;;;;6161475;23;20434;-76
2021/08/16 08:20:56;;;;;;;3.63;3.03;;;21.50;99.90;;;;;;6151960;23;20033;-77
2021/08/16 08:23:24;;;;;;;6.25;4.78;;;21.40;99.90;;;;;;6158426;23;20025;-77
2021/08/16 08:25:53;;;;;;;3.75;3.45;;;21.40;99.90;;;;;;6161497;23;20025;-78
2021/08/16 08:28:20;;;;;;;4.90;4.30;;;21.30;99.90;;;;;;6154603;23;20036;-77
2021/08/16 08:30:49;;;;;;;5.03;4.38;;;21.20;99.90;;;;;;6160854;23;20021;-78
2021/08/16 08:33:18;;;;;;;4.07;3.40;;;21.20;99.90;;;;;;6125437;23;20765;-77
2021/08/16 08:35:51;;;;;;;6.10;3.65;;;21.20;99.90;;;;;;6130890;23;20025;-78
2021/08/16 08:38:20;;;;;;;5.18;3.85;;;21.20;99.90;;;;;;6161071;23;20037;-77
2021/08/16 08:40:51;;;;;;;7.63;3.42;;;21.20;99.90;;;;;;6152760;23;20033;-78
2021/08/16 08:43:24;;;;;;;6.20;3.92;;;21.30;99.90;;;;;;6157198;23;20358;-78
2021/08/16 08:45:55;;;;;;;7.88;5.68;;;21.30;99.90;;;;;;6159308;23;20010;-78
2021/08/16 08:48:23;;;;;;;7.15;3.55;;;21.30;99.90;;;;;;6099456;23;20018;-78
2021/08/16 08:50:53;;;;;;;7.18;4.75;;;21.20;99.90;;;;;;6154305;23;20028;-78
2021/08/16 08:53:21;;;;;;;5.80;3.15;;;21.10;99.90;;;;;;6123519;23;20026;-78
2021/08/16 08:55:48;;;;;;;11.02;4.97;;;21.10;99.90;;;;;;6156917;23;20394;-77
2021/08/16 08:58:19;;;;;;;8.65;4.18;;;21.10;99.90;;;;;;6160384;23;20425;-78
2021/08/16 09:00:47;;;;;;;3.90;3.58;;;21.00;99.90;;;;;;6123382;23;20879;-78
2021/08/16 09:03:16;;;;;;;8.85;3.83;;;21.00;99.90;;;;;;6159656;23;20644;-77
2021/08/16 09:06:02;;;;;;;4.38;3.97;;;20.90;99.90;;;;;;6160718;23;20013;-78
2021/08/16 09:08:37;;;;;;;4.35;3.63;;;20.90;99.90;;;;;;6122709;23;20022;-78
2021/08/16 09:11:06;;;;;;;8.63;4.13;;;20.90;99.90;;;;;;6159766;23;20018;-80
2021/08/16 09:13:34;;;;;;;7.63;5.30;;;20.90;99.90;;;;;;6123251;23;20021;-78
2021/08/16 09:16:11;;;;;;;7.75;5.05;;;20.90;99.90;;;;;;6129425;23;20021;-78
2021/08/16 09:18:39;;;;;;;6.68;3.90;;;20.90;99.90;;;;;;6124081;23;20022;-79
2021/08/16 09:21:08;;;;;;;4.72;4.32;;;21.00;99.90;;;;;;6074253;23;20033;-78
2021/08/16 09:23:46;;;;;;;5.85;5.32;;;21.00;99.90;;;;;;6156261;23;20032;-78
2021/08/16 09:26:33;;;;;;;4.78;3.70;;;20.90;99.90;;;;;;6134770;23;20014;-78
2021/08/16 09:29:21;;;;;;;7.28;4.25;;;20.90;99.90;;;;;;6150059;23;20041;-78
2021/08/16 09:32:01;;;;;;;4.40;4.00;;;20.80;99.90;;;;;;6122669;23;20022;-78
2021/08/16 09:34:31;;;;;;;5.65;4.05;;;20.80;99.90;;;;;;6133976;23;20014;-79
2021/08/16 09:37:03;;;;;;;8.68;4.35;;;20.70;99.90;;;;;;6075476;23;20021;-79
2021/08/16 09:39:36;;;;;;;6.40;3.75;;;20.70;99.90;;;;;;6131719;23;20468;-78
2021/08/16 09:42:07;;;;;;;4.47;4.07;;;20.80;99.90;;;;;;6160504;23;20322;-78
2021/08/16 09:44:44;;;;;;;10.43;4.45;;;20.80;99.90;;;;;;6125144;23;20374;-78
2021/08/16 09:47:12;;;;;;;4.35;3.97;;;20.80;99.90;;;;;;6152193;23;20330;-77
2021/08/16 09:49:40;;;;;;;6.03;4.00;;;20.80;99.90;;;;;;6161712;23;20025;-79
2021/08/16 09:52:12;;;;;;;7.50;5.03;;;20.90;99.90;;;;;;6157409;23;20029;-80
2021/08/16 09:54:41;;;;;;;4.53;3.75;;;20.90;99.90;;;;;;6126502;23;20074;-77
2021/08/16 09:57:10;;;;;;;6.10;4.53;;;21.00;99.90;;;;;;6151391;23;20028;-76
2021/08/16 09:59:38;;;;;;;4.97;3.38;;;21.00;99.90;;;;;;6101205;23;20032;-77
2021/08/16 10:02:11;;;;;;;7.60;4.45;;;21.00;99.90;;;;;;6137289;23;20017;-79
2021/08/16 10:04:39;;;;;;;8.50;4.60;;;21.10;99.90;;;;;;6153774;23;20030;-79
2021/08/16 10:07:11;;;;;;;7.28;4.85;;;21.10;99.90;;;;;;6159138;23;20044;-78
2021/08/16 10:09:51;;;;;;;7.30;4.57;;;21.10;99.90;;;;;;6159826;23;20737;-79
2021/08/16 10:12:20;;;;;;;6.10;4.37;;;20.90;99.90;;;;;;6151160;23;20034;-79
2021/08/16 10:14:51;;;;;;;14.77;5.93;;;20.90;99.90;;;;;;6125634;23;20261;-79
2021/08/16 10:17:26;;;;;;;5.28;4.53;;;20.80;99.90;;;;;;6152212;23;20026;-78
2021/08/16 10:19:57;;;;;;;8.38;4.82;;;20.80;99.90;;;;;;6157420;23;20022;-79
2021/08/16 10:22:25;;;;;;;4.43;3.58;;;20.70;99.90;;;;;;6161657;23;20013;-79
2021/08/16 10:24:53;;;;;;;7.07;5.65;;;20.70;99.90;;;;;;6154054;23;20025;-79
2021/08/16 10:27:30;;;;;;;7.32;5.10;;;20.60;99.90;;;;;;6124018;23;20036;-80
2021/08/16 10:30:08;;;;;;;15.68;7.78;;;20.60;99.90;;;;;;6162510;23;20018;-79
2021/08/16 10:32:36;;;;;;;6.43;4.07;;;20.70;99.90;;;;;;6155305;23;20369;-78
2021/08/16 10:35:13;;;;;;;6.82;6.05;;;20.70;99.90;;;;;;6159898;23;20014;-80
2021/08/16 10:37:42;;;;;;;9.68;5.03;;;20.60;99.90;;;;;;6162168;23;20441;-80
2021/08/16 10:40:27;;;;;;;9.85;6.05;;;20.60;99.90;;;;;;6158101;23;20025;-80
2021/08/16 10:42:55;;;;;;;5.07;3.85;;;20.60;99.90;;;;;;6126300;23;20365;-79
2021/08/16 10:45:25;;;;;;;5.35;4.55;;;20.70;99.90;;;;;;6127099;23;20030;-79
2021/08/16 10:48:07;;;;;;;6.18;5.40;;;20.60;99.90;;;;;;6159358;23;20022;-82
2021/08/16 10:50:37;;;;;;;6.13;4.78;;;20.50;99.90;;;;;;6132144;23;20036;-81
2021/08/16 10:53:10;;;;;;;5.60;5.13;;;20.40;99.90;;;;;;6125871;23;20032;-82
2021/08/16 10:55:50;;;;;;;8.77;5.45;;;20.30;99.90;;;;;;6160031;23;20029;-85
2021/08/16 10:58:24;;;;;;;8.65;4.78;;;20.10;99.90;;;;;;6137124;23;20052;-85
2021/08/16 11:00:52;;;;;;;7.18;5.13;;;19.80;99.90;;;;;;6102862;23;20036;-85
2021/08/16 11:03:24;;;;;;;6.55;4.53;;;19.60;99.90;;;;;;6103558;23;20350;-83
2021/08/16 11:05:52;;;;;;;11.50;6.18;;;19.50;99.90;;;;;;6079247;23;20452;-82
2021/08/16 11:08:31;;;;;;;5.82;5.25;;;19.40;99.90;;;;;;6131691;23;20021;-84
2021/08/16 11:11:06;;;;;;;11.93;8.25;;;19.50;99.90;;;;;;6103396;23;20013;-83
2021/08/16 11:13:35;;;;;;;6.35;5.45;;;19.70;99.90;;;;;;6134567;23;20029;-84
2021/08/16 11:16:07;;;;;;;5.38;4.57;;;19.80;99.90;;;;;;6103383;23;20032;-83
2021/08/16 11:18:36;;;;;;;7.95;5.05;;;20.00;99.90;;;;;;6104072;23;20025;-83
2021/08/16 11:21:09;;;;;;;10.75;6.47;;;20.10;99.90;;;;;;6128487;23;20410;-82
2021/08/16 11:23:39;;;;;;;9.15;6.63;;;20.20;99.90;;;;;;6126703;23;20033;-83
2021/08/16 11:26:10;;;;;;;8.35;6.93;;;20.30;99.90;;;;;;6164338;23;20021;-84
2021/08/16 11:28:40;;;;;;;5.82;5.28;;;20.50;99.90;;;;;;6155048;23;20018;-81
2021/08/16 11:31:08;;;;;;;12.98;6.70;;;20.60;99.90;;;;;;6101827;23;20029;-82
2021/08/16 11:33:36;;;;;;;6.75;5.88;;;20.40;99.90;;;;;;6113721;23;20021;-82
2021/08/16 11:36:12;;;;;;;14.18;8.68;;;20.50;99.90;;;;;;6158524;23;20033;-79
2021/08/16 11:38:42;;;;;;;7.30;5.75;;;20.50;99.90;;;;;;6162419;23;20024;-79
2021/08/16 11:41:11;;;;;;;8.48;5.57;;;20.30;99.90;;;;;;6154311;23;20036;-79
2021/08/16 11:44:16;;;;;;;23.00;8.25;;;20.30;99.90;;;;;;6131876;23;20034;-80
2021/08/16 11:46:44;;;;;;;8.38;6.07;;;20.20;99.90;;;;;;6163797;23;20021;-79
2021/08/16 11:49:13;;;;;;;9.30;5.25;;;20.00;99.90;;;;;;6153849;23;20025;-79
2021/08/16 11:51:43;;;;;;;10.10;8.48;;;19.90;99.90;;;;;;6152703;23;20099;-79
2021/08/16 11:54:23;;;;;;;10.30;6.22;;;19.90;99.90;;;;;;6160950;23;20013;-79
2021/08/16 11:56:53;;;;;;;7.53;6.57;;;19.90;99.90;;;;;;6155565;23;20029;-79
2021/08/16 11:59:26;;;;;;;8.88;6.82;;;20.00;99.90;;;;;;6161166;23;20024;-79
2021/08/16 12:02:06;;;;;;;10.60;8.77;;;20.00;99.90;;;;;;6163422;23;20010;-80
2021/08/16 12:04:37;;;;;;;9.65;6.38;;;20.00;99.90;;;;;;6156842;23;20025;-79
2021/08/16 12:07:05;;;;;;;9.25;8.18;;;20.00;99.90;;;;;;6162872;23;20041;-79
2021/08/16 12:09:35;;;;;;;19.35;7.47;;;20.00;99.90;;;;;;6162866;23;20040;-80
2021/08/16 12:12:06;;;;;;;8.95;6.90;;;20.00;99.90;;;;;;6126567;23;20036;-84
2021/08/16 12:14:38;;;;;;;8.07;7.22;;;20.10;99.90;;;;;;6101069;23;20021;-81
2021/08/16 12:17:06;;;;;;;6.75;5.68;;;20.00;99.90;;;;;;6126059;23;20352;-81
2021/08/16 12:19:35;;;;;;;11.32;5.63;;;19.80;99.90;;;;;;6134785;23;20021;-80
2021/08/16 12:22:10;;;;;;;8.15;6.57;;;19.60;99.90;;;;;;6125564;23;20028;-80
2021/08/16 12:25:05;;;;;;;9.60;6.32;;;19.60;99.90;;;;;;5020179;27;20406;-77
2021/08/16 12:28:00;;;;;;;10.90;6.88;;;19.70;99.90;;;;;;5048910;27;20394;-80
2021/08/16 12:30:42;;;;;;;13.93;8.90;;;19.70;99.90;;;;;;5096619;27;1406039;-81
2021/08/16 12:33:28;;;;;;;8.05;7.28;;;19.50;99.90;;;;;;5009248;27;20399;-81
2021/08/16 12:36:09;;;;;;;12.95;8.02;;;19.40;99.90;;;;;;5089273;27;20501;-80
2021/08/16 12:39:00;;;;;;;6.88;6.15;;;19.20;99.90;;;;;;5067990;28;20391;-79
2021/08/16 12:42:06;;;;;;;14.52;8.15;;;19.10;99.90;;;;;;5068554;28;20398;-79
2021/08/16 12:44:51;;;;;;;8.48;7.20;;;19.00;99.90;;;;;;5100363;27;20601;-79
2021/08/16 12:47:38;;;;;;;8.88;6.20;;;18.90;99.90;;;;;;5114638;27;20118;-81
2021/08/16 12:50:22;;;;;;;11.85;8.45;;;19.00;99.90;;;;;;5068257;28;20437;-81
2021/08/16 12:53:08;;;;;;;13.05;8.18;;;18.90;99.90;;;;;;5015641;27;20510;-81
2021/08/16 12:55:50;;;;;;;14.27;7.15;;;18.80;99.90;;;;;;5069860;27;20396;-83
2021/08/16 12:58:35;;;;;;;10.27;8.02;;;18.70;99.90;;;;;;5067921;28;20387;-82
2021/08/16 13:01:21;;;;;;;11.02;8.60;;;18.50;99.90;;;;;;5013854;27;20394;-81
2021/08/16 13:04:03;;;;;;;13.10;8.65;;;18.50;99.90;;;;;;5043742;27;20437;-81
2021/08/16 13:06:50;;;;;;;11.25;9.77;;;18.40;99.90;;;;;;5149733;27;20111;-80